Time;durP1;ratioP1;P1;durP2;ratioP2;P2;SDS_P1;SDS_P2;PMS_P1;PMS_P2;Temp;Humidity;BMP_temperature;BMP_pressure;BME280_temperature;BME280_humidity;BME280_pressure;Samples;Min_cycle;Max_cycle;Signal;HPM_P1;HPM_P2
2022/01/16 00:01:38;;;;;;;49.30;19.75;;;;;;;1.01;100.00;97075.28;5008245;28;20073;-46
2022/01/16 00:04:06;;;;;;;46.40;19.17;;;;;;;1.15;100.00;97090.22;5004786;28;20480;-49
2022/01/16 00:06:35;;;;;;;39.78;18.42;;;;;;;0.94;100.00;97076.47;5005431;28;20638;-43
2022/01/16 00:09:04;;;;;;;49.40;20.13;;;;;;;0.86;100.00;97058.66;5004128;28;20069;-49
2022/01/16 00:11:33;;;;;;;57.30;21.02;;;;;;;1.07;100.00;97059.44;5007504;28;20077;-49
2022/01/16 00:14:02;;;;;;;55.63;19.80;;;;;;;1.38;100.00;97071.81;5002506;28;20073;-52
2022/01/16 00:16:32;;;;;;;46.63;18.67;;;;;;;1.21;100.00;97066.56;5006487;28;20100;-50
2022/01/16 00:19:01;;;;;;;37.58;17.70;;;;;;;1.15;100.00;97069.44;5004483;28;20326;-47
2022/01/16 00:21:31;;;;;;;43.38;18.13;;;;;;;1.42;100.00;97060.34;5008452;28;20069;-49
2022/01/16 00:24:00;;;;;;;41.88;18.15;;;;;;;1.28;100.00;97060.19;5003868;28;20072;-53
2022/01/16 00:26:29;;;;;;;39.10;18.65;;;;;;;1.21;100.00;97068.34;5005318;28;20061;-50
2022/01/16 00:28:57;;;;;;;38.13;16.95;;;;;;;1.30;100.00;97034.09;5005368;28;20080;-47
2022/01/16 00:31:26;;;;;;;42.97;17.85;;;;;;;0.87;100.00;97028.34;5007911;28;20520;-49
2022/01/16 00:33:56;;;;;;;37.33;16.95;;;;;;;0.59;100.00;97039.16;5003783;28;20204;-52
2022/01/16 00:36:24;;;;;;;34.73;17.40;;;;;;;0.63;100.00;97051.91;5005218;28;20053;-50
2022/01/16 00:38:54;;;;;;;41.78;18.33;;;;;;;0.48;100.00;97057.78;5005838;28;20080;-55
2022/01/16 00:41:22;;;;;;;37.93;16.87;;;;;;;0.55;100.00;97038.47;5004860;28;20069;-49
2022/01/16 00:43:52;;;;;;;49.50;16.55;;;;;;;0.37;100.00;97034.06;5004022;28;20590;-47
2022/01/16 00:46:21;;;;;;;53.35;17.15;;;;;;;0.27;100.00;97041.41;5006815;28;20084;-50
2022/01/16 00:48:49;;;;;;;41.38;16.80;;;;;;;0.73;100.00;97054.94;5005630;28;20465;-52
2022/01/16 00:51:19;;;;;;;45.22;16.95;;;;;;;1.05;100.00;97018.84;5004311;28;20081;-53
2022/01/16 00:53:47;;;;;;;40.53;18.07;;;;;;;1.29;100.00;97028.06;5003898;28;20177;-47
2022/01/16 00:56:16;;;;;;;29.77;15.02;;;;;;;0.62;100.00;97033.81;5004892;28;21064;-51
2022/01/16 00:58:44;;;;;;;40.65;16.08;;;;;;;0.34;100.00;97031.59;5003497;28;20096;-50
2022/01/16 01:01:14;;;;;;;39.83;16.75;;;;;;;0.54;100.00;97026.38;5005693;28;20081;-50
2022/01/16 01:03:42;;;;;;;45.35;17.27;;;;;;;0.54;100.00;97041.09;5004782;28;20079;-51
2022/01/16 01:06:11;;;;;;;60.08;17.70;;;;;;;1.00;100.00;97041.59;5006102;28;20065;-49
2022/01/16 01:08:41;;;;;;;54.80;17.23;;;;;;;1.14;100.00;97063.41;5004282;28;20084;-49
2022/01/16 01:11:14;;;;;;;50.80;16.45;;;;;;;1.32;100.00;97069.50;5003569;28;20065;-50
2022/01/16 01:14:07;;;;;;;40.85;16.58;;;;;;;1.45;100.00;97056.78;5005556;28;20096;-49
2022/01/16 01:16:51;;;;;;;43.55;16.42;;;;;;;1.75;100.00;97056.16;5003435;28;20081;-45
2022/01/16 01:19:24;;;;;;;52.38;16.75;;;;;;;1.56;100.00;96999.91;5002023;28;20076;-51
2022/01/16 01:21:53;;;;;;;39.08;17.27;;;;;;;1.55;100.00;96968.78;5003626;28;21021;-52
2022/01/16 01:24:23;;;;;;;41.83;16.35;;;;;;;1.56;100.00;96967.88;5003608;28;20066;-49
2022/01/16 01:26:59;;;;;;;36.53;16.02;;;;;;;1.66;100.00;96972.53;5003100;28;20076;-48
2022/01/16 01:29:29;;;;;;;40.92;16.45;;;;;;;1.88;100.00;96968.84;5003340;28;20527;-48
2022/01/16 01:31:58;;;;;;;51.38;17.27;;;;;;;1.87;100.00;96961.97;5004230;28;20065;-49
2022/01/16 01:34:26;;;;;;;47.40;17.60;;;;;;;1.57;100.00;97017.16;5004813;28;20089;-54
2022/01/16 01:36:55;;;;;;;38.78;16.90;;;;;;;1.74;100.00;97018.09;5002787;28;20042;-48
2022/01/16 01:39:25;;;;;;;42.92;17.73;;;;;;;1.66;100.00;97029.72;5003371;28;20558;-50
2022/01/16 01:42:03;;;;;;;55.90;17.98;;;;;;;1.87;100.00;97029.56;5008853;28;20112;-46
2022/01/16 01:52:53;;;;;;;41.65;16.30;;;;;;;1.34;100.00;97020.91;5003103;28;20089;-48
2022/01/16 01:55:23;;;;;;;37.05;15.18;;;;;;;1.29;100.00;97006.44;5006737;28;20081;-55
2022/01/16 01:57:52;;;;;;;;;;;;;;;0.85;100.00;97020.63;5004666;28;20057;-48
2022/01/16 02:00:21;;;;;;;36.30;17.02;;;;;;;0.85;100.00;97036.19;5002841;28;20393;-43
2022/01/16 02:03:06;;;;;;;35.50;16.10;;;;;;;1.12;100.00;97021.09;5005047;28;20073;-48
2022/01/16 02:05:35;;;;;;;34.80;15.00;;;;;;;1.09;100.00;97044.59;5002945;28;20069;-48
2022/01/16 02:08:05;;;;;;;34.95;16.10;;;;;;;1.05;100.00;97045.66;5003874;28;20061;-46
2022/01/16 02:10:35;;;;;;;;;;;;;;;1.14;100.00;97065.19;5003562;28;20092;-46
2022/01/16 02:13:07;;;;;;;39.28;16.02;;;;;;;1.21;100.00;97057.94;5005709;28;19957;-47
2022/01/16 02:30:20;;;;;;;44.03;16.10;;;;;;;0.93;100.00;97025.47;4990499;28;20066;-50
2022/01/16 02:32:59;;;;;;;41.38;17.05;;;;;;;0.84;100.00;97023.28;5000664;28;20077;-50
2022/01/16 02:35:28;;;;;;;45.28;17.38;;;;;;;0.90;100.00;97017.81;4990528;28;20078;-52
2022/01/16 02:37:56;;;;;;;34.47;16.02;;;;;;;1.06;100.00;97013.56;4983048;28;20061;-54
2022/01/16 02:40:28;;;;;;;33.40;15.77;;;;;;;0.70;100.00;97006.59;5000807;28;20118;-48
2022/01/16 02:42:56;;;;;;;47.65;16.42;;;;;;;1.13;100.00;96995.94;4997576;28;20075;-52
2022/01/16 02:45:32;;;;;;;49.72;16.23;;;;;;;1.09;100.00;97008.22;5002873;28;20610;-47
2022/01/16 02:48:03;;;;;;;40.03;16.40;;;;;;;0.88;100.00;97004.06;5002870;28;20077;-48
2022/01/16 02:50:32;;;;;;;47.72;16.23;;;;;;;0.86;100.00;96996.38;5003230;28;20061;-56
2022/01/16 02:53:03;;;;;;;36.95;15.70;;;;;;;0.86;100.00;96991.16;5000404;28;20081;-54
2022/01/16 02:55:33;;;;;;;33.42;15.60;;;;;;;1.17;100.00;96992.28;4997330;28;20575;-48
2022/01/16 02:58:01;;;;;;;39.33;16.13;;;;;;;1.08;100.00;96979.75;5004342;28;20457;-48
2022/01/16 03:00:30;;;;;;;44.28;15.27;;;;;;;1.09;100.00;96978.81;4997922;28;20067;-48
2022/01/16 03:02:58;;;;;;;38.63;15.50;;;;;;;1.01;100.00;96992.19;4999083;28;20539;-48
2022/01/16 03:05:27;;;;;;;41.50;16.48;;;;;;;1.15;100.00;96989.78;5000609;28;20584;-49
2022/01/16 03:07:55;;;;;;;48.25;17.23;;;;;;;0.93;100.00;96994.31;4997771;28;20070;-48
2022/01/16 03:10:51;;;;;;;46.38;16.88;;;;;;;0.94;100.00;96990.81;5005934;28;20078;-51
2022/01/16 03:13:22;;;;;;;42.60;17.40;;;;;;;1.05;100.00;96987.69;4997706;28;20069;-53
2022/01/16 03:15:52;;;;;;;40.80;17.83;;;;;;;1.00;100.00;96976.66;4998203;28;20034;-51
2022/01/16 03:23:52;;;;;;;51.85;17.90;;;;;;;0.97;100.00;96969.88;4998798;28;20071;-56
2022/01/16 03:26:20;;;;;;;51.88;17.27;;;;;;;1.55;100.00;96967.03;5003820;28;20108;-51
2022/01/16 03:28:50;;;;;;;51.92;17.75;;;;;;;1.21;100.00;96972.22;4992092;28;20073;-49
2022/01/16 03:31:18;;;;;;;41.43;16.90;;;;;;;1.63;100.00;96958.84;4990439;28;20109;-57
2022/01/16 03:33:47;;;;;;;57.03;18.30;;;;;;;1.57;100.00;96953.94;4989824;28;20517;-55
2022/01/16 03:36:15;;;;;;;48.08;18.27;;;;;;;1.46;100.00;96956.25;4987108;28;20061;-50
2022/01/16 03:38:44;;;;;;;61.92;19.75;;;;;;;1.28;100.00;96951.06;4985132;28;20076;-51
2022/01/16 03:41:12;;;;;;;44.83;18.27;;;;;;;1.41;100.00;96944.34;4984096;28;20528;-53
2022/01/16 03:43:41;;;;;;;58.70;18.23;;;;;;;1.21;100.00;96948.84;4993260;28;20122;-52
2022/01/16 03:46:11;;;;;;;58.00;20.13;;;;;;;1.37;100.00;96937.59;4984564;28;20070;-51
2022/01/16 03:48:39;;;;;;;61.80;18.08;;;;;;;0.81;100.00;96940.38;4988208;28;20676;-50
2022/01/16 03:51:08;;;;;;;48.55;18.23;;;;;;;1.02;100.00;96938.50;4984405;28;20461;-55
2022/01/16 03:53:37;;;;;;;57.30;19.70;;;;;;;1.27;100.00;96938.13;4987851;28;20069;-54
2022/01/16 03:56:05;;;;;;;49.72;18.73;;;;;;;1.26;100.00;96939.06;4991066;28;20069;-53
2022/01/16 03:58:34;;;;;;;48.50;20.20;;;;;;;1.27;100.00;96938.97;4985084;28;20532;-49
2022/01/16 04:01:02;;;;;;;50.30;19.77;;;;;;;1.11;100.00;96949.28;4990536;28;20419;-54
2022/01/16 04:03:32;;;;;;;39.30;16.88;;;;;;;1.13;100.00;96952.63;4986712;28;20469;-54
2022/01/16 04:06:01;;;;;;;35.13;16.63;;;;;;;0.90;100.00;96958.13;4983181;28;20058;-55
2022/01/16 04:08:30;;;;;;;41.95;18.42;;;;;;;0.84;100.00;96955.81;4983618;28;20489;-53
2022/01/16 04:10:59;;;;;;;43.85;17.70;;;;;;;0.76;100.00;96960.50;4985353;28;20085;-51
2022/01/16 04:13:27;;;;;;;34.45;16.23;;;;;;;0.58;100.00;96950.06;4987060;28;20073;-54
2022/01/16 04:15:56;;;;;;;37.08;16.48;;;;;;;0.54;100.00;96948.53;4981280;28;20073;-55
2022/01/16 04:18:25;;;;;;;31.80;15.38;;;;;;;0.75;100.00;96958.81;4988544;28;20066;-51
2022/01/16 04:20:54;;;;;;;28.15;13.43;;;;;;;0.57;100.00;96971.75;4981739;28;20074;-49
2022/01/16 04:23:23;;;;;;;31.73;14.97;;;;;;;0.64;100.00;96969.72;4987521;28;20078;-50
2022/01/16 04:25:51;;;;;;;29.48;14.65;;;;;;;0.80;100.00;96975.03;4987749;28;20564;-46
2022/01/16 04:28:24;;;;;;;25.85;13.40;;;;;;;0.63;100.00;96968.88;4983229;28;20603;-48
2022/01/16 04:30:53;;;;;;;31.45;14.23;;;;;;;0.68;100.00;96960.84;4980962;28;20193;-55
2022/01/16 04:33:22;;;;;;;26.10;12.45;;;;;;;0.39;100.00;96962.22;4983778;28;20062;-49
2022/01/16 04:35:50;;;;;;;34.15;15.45;;;;;;;0.70;100.00;96956.44;4986737;28;20572;-51
2022/01/16 04:38:20;;;;;;;36.92;15.90;;;;;;;0.61;100.00;96956.88;4986050;28;20077;-53
2022/01/16 04:43:48;;;;;;;29.38;13.65;;;;;;;0.58;100.00;96975.16;4991837;28;20505;-51
2022/01/16 04:46:18;;;;;;;30.75;14.82;;;;;;;0.80;100.00;96968.09;4988937;28;21445;-50
2022/01/16 04:48:47;;;;;;;33.28;14.90;;;;;;;0.64;100.00;96983.53;4985369;28;20073;-50
2022/01/16 04:51:15;;;;;;;29.80;14.18;;;;;;;0.48;100.00;96979.94;4982636;28;20085;-52
2022/01/16 04:53:45;;;;;;;33.88;15.52;;;;;;;0.68;100.00;96985.06;4987937;28;20449;-47
2022/01/16 04:56:15;;;;;;;31.92;14.35;;;;;;;0.54;100.00;96976.22;4988806;28;20073;-49
2022/01/16 04:58:43;;;;;;;28.17;14.93;;;;;;;0.64;100.00;96965.34;4984102;28;20096;-49
2022/01/16 05:01:12;;;;;;;36.08;16.05;;;;;;;0.70;100.00;96965.06;4984944;28;20074;-48
2022/01/16 05:03:40;;;;;;;34.50;15.60;;;;;;;0.65;100.00;96961.00;4990966;28;20066;-48
2022/01/16 05:06:10;;;;;;;34.45;17.17;;;;;;;0.69;100.00;96962.56;4982307;28;20069;-52
2022/01/16 05:08:39;;;;;;;43.75;18.23;;;;;;;0.94;100.00;96970.03;4981521;28;20065;-49
2022/01/16 05:11:10;;;;;;;40.03;18.48;;;;;;;1.18;100.00;96963.66;4986929;28;20074;-51
2022/01/16 05:16:37;;;;;;;45.25;18.10;;;;;;;0.81;100.00;96971.50;4982162;28;20082;-55
2022/01/16 05:19:08;;;;;;;38.95;17.42;;;;;;;0.97;100.00;96967.28;4984216;28;20634;-48
2022/01/16 05:21:37;;;;;;;43.83;19.02;;;;;;;1.13;100.00;96970.81;4989236;28;20071;-53
2022/01/16 05:24:09;;;;;;;41.22;17.27;;;;;;;0.97;100.00;96976.84;4981338;28;20069;-53
2022/01/16 05:26:40;;;;;;;42.60;18.17;;;;;;;0.95;100.00;96958.72;4984345;28;20136;-51
2022/01/16 05:29:10;;;;;;;44.42;19.25;;;;;;;1.15;100.00;96968.16;4981451;28;20074;-51
2022/01/16 05:31:44;;;;;;;46.70;18.77;;;;;;;1.12;100.00;96973.50;4983066;28;20093;-46
2022/01/16 05:34:13;;;;;;;41.83;18.00;;;;;;;1.12;100.00;96973.50;4982487;28;20520;-50
2022/01/16 05:36:42;;;;;;;44.33;18.85;;;;;;;0.95;100.00;96977.72;4988233;28;20074;-51
2022/01/16 05:39:11;;;;;;;51.03;19.85;;;;;;;1.03;100.00;96979.94;4980235;28;20058;-48
2022/01/16 05:41:41;;;;;;;33.90;15.10;;;;;;;0.71;100.00;96978.88;4991332;28;20077;-50
2022/01/16 05:44:09;;;;;;;40.13;18.33;;;;;;;0.86;100.00;96983.38;4981797;28;20070;-50
2022/01/16 05:46:38;;;;;;;37.33;16.98;;;;;;;0.71;100.00;96974.53;4979677;28;20741;-52
2022/01/16 05:49:06;;;;;;;43.58;19.95;;;;;;;0.90;100.00;96984.91;4983200;28;20557;-47
2022/01/16 05:51:35;;;;;;;32.55;15.43;;;;;;;0.85;100.00;96981.69;4979054;28;20074;-52
2022/01/16 05:54:03;;;;;;;35.92;17.88;;;;;;;0.94;100.00;96978.66;4969758;28;20085;-48
2022/01/16 05:56:32;;;;;;;35.42;17.80;;;;;;;0.86;100.00;96974.72;4964468;28;20066;-54
2022/01/16 05:59:01;;;;;;;34.22;17.52;;;;;;;0.80;100.00;96975.88;4981701;28;20073;-51
2022/01/16 06:01:30;;;;;;;35.87;18.53;;;;;;;0.61;100.00;96982.81;4979463;28;20540;-51
2022/01/16 06:03:58;;;;;;;21.92;13.02;;;;;;;0.45;100.00;96982.69;4978674;28;20936;-50
2022/01/16 06:06:27;;;;;;;32.20;16.52;;;;;;;0.64;100.00;96996.50;4980550;28;20539;-47
2022/01/16 06:08:55;;;;;;;32.70;17.98;;;;;;;0.77;100.00;97001.97;4979769;28;20077;-52
2022/01/16 06:11:26;;;;;;;33.55;18.75;;;;;;;0.44;100.00;97004.34;4974082;28;20158;-50
2022/01/16 06:13:55;;;;;;;32.72;17.33;;;;;;;0.58;100.00;97009.75;4978305;28;20074;-50
2022/01/16 06:16:25;;;;;;;40.65;22.38;;;;;;;0.81;100.00;97023.44;4979808;28;20529;-48
2022/01/16 06:18:54;;;;;;;30.23;16.38;;;;;;;0.55;100.00;97016.84;4976922;28;20080;-50
2022/01/16 06:21:22;;;;;;;33.25;18.95;;;;;;;0.52;100.00;97010.06;4981301;28;20074;-51
2022/01/16 06:23:50;;;;;;;37.58;18.70;;;;;;;0.48;100.00;97018.84;4983604;28;20081;-50
2022/01/16 06:26:19;;;;;;;38.65;20.58;;;;;;;0.67;100.00;97022.31;4981738;28;20081;-50
2022/01/16 06:28:47;;;;;;;48.30;25.05;;;;;;;0.75;100.00;97018.53;4984561;28;20089;-47
2022/01/16 06:31:15;;;;;;;38.42;19.95;;;;;;;0.77;100.00;97022.75;4981916;28;20108;-54
2022/01/16 06:33:45;;;;;;;35.50;19.50;;;;;;;0.67;100.00;97017.13;4979718;28;20066;-51
2022/01/16 06:36:14;;;;;;;36.90;19.93;;;;;;;0.82;100.00;97022.50;4983164;28;20079;-53
2022/01/16 06:38:42;;;;;;;34.08;17.35;;;;;;;0.68;100.00;97017.97;4989001;28;20083;-52
2022/01/16 06:41:11;;;;;;;42.45;21.90;;;;;;;0.93;100.00;97015.09;4983691;28;20077;-54
2022/01/16 06:43:40;;;;;;;39.70;20.90;;;;;;;0.77;100.00;97011.50;4985575;28;20081;-53
2022/01/16 06:46:08;;;;;;;41.95;21.23;;;;;;;0.89;100.00;97014.38;4987776;28;20085;-48
2022/01/16 06:48:37;;;;;;;39.55;20.00;;;;;;;0.89;100.00;97006.56;4985588;28;20061;-50
2022/01/16 06:51:06;;;;;;;42.78;23.13;;;;;;;0.98;100.00;97007.06;4983269;28;20058;-51
2022/01/16 06:53:35;;;;;;;43.55;23.83;;;;;;;0.85;100.00;97017.19;4983240;28;20081;-51
2022/01/16 06:56:04;;;;;;;36.63;19.35;;;;;;;0.87;100.00;97023.16;4980722;28;20070;-50
2022/01/16 06:58:33;;;;;;;46.20;25.15;;;;;;;1.15;100.00;97026.13;4988205;28;20078;-48
2022/01/16 07:01:02;;;;;;;46.35;24.98;;;;;;;1.09;100.00;97025.56;4978258;28;20571;-49
2022/01/16 07:03:30;;;;;;;58.55;30.25;;;;;;;1.08;100.00;97024.75;4985161;28;20574;-52
2022/01/16 07:06:00;;;;;;;50.70;26.55;;;;;;;0.97;100.00;97034.81;4988251;28;20449;-51
2022/01/16 07:08:30;;;;;;;47.65;24.35;;;;;;;1.06;100.00;97041.31;4990090;28;20063;-52
2022/01/16 07:11:00;;;;;;;37.25;19.85;;;;;;;0.90;100.00;97036.84;4983966;28;20706;-50
2022/01/16 07:13:30;;;;;;;45.03;21.25;;;;;;;1.04;100.00;97032.75;4986952;28;21388;-49
2022/01/16 07:15:58;;;;;;;48.70;24.55;;;;;;;1.38;100.00;97042.38;4992523;28;20157;-47
2022/01/16 07:18:27;;;;;;;45.88;23.70;;;;;;;1.13;100.00;97048.72;4986106;28;20070;-53
2022/01/16 07:20:56;;;;;;;41.65;21.08;;;;;;;0.90;100.00;97044.63;4985497;28;20700;-52
2022/01/16 07:23:25;;;;;;;50.85;24.35;;;;;;;1.07;100.00;97037.81;4989788;28;20077;-48
2022/01/16 07:25:55;;;;;;;48.95;22.98;;;;;;;1.10;100.00;97041.09;4987049;28;20701;-50
2022/01/16 07:28:23;;;;;;;51.20;24.98;;;;;;;1.00;100.00;97049.38;4985366;28;20085;-49
2022/01/16 07:30:52;;;;;;;46.05;23.90;;;;;;;1.19;100.00;97058.00;4986349;28;20070;-52
2022/01/16 07:33:20;;;;;;;48.88;24.73;;;;;;;1.37;100.00;97054.50;4982915;28;20081;-54
2022/01/16 07:35:48;;;;;;;47.90;23.92;;;;;;;1.24;100.00;97065.56;4981828;28;20074;-52
2022/01/16 07:38:17;;;;;;;47.13;24.92;;;;;;;1.26;100.00;97058.56;4979144;28;20074;-47
2022/01/16 07:40:45;;;;;;;47.83;24.38;;;;;;;1.11;100.00;97071.34;4987027;28;20090;-48
2022/01/16 07:43:16;;;;;;;33.67;16.83;;;;;;;1.10;100.00;97061.88;4983638;28;20078;-50
2022/01/16 07:45:45;;;;;;;47.90;23.90;;;;;;;1.07;100.00;97059.44;4980881;28;20057;-54
2022/01/16 07:48:13;;;;;;;47.13;23.77;;;;;;;1.15;100.00;97061.66;4980403;28;20065;-47
2022/01/16 07:50:42;;;;;;;41.40;19.75;;;;;;;1.05;100.00;97070.78;4982348;28;20062;-50
2022/01/16 07:53:10;;;;;;;40.40;20.50;;;;;;;0.99;100.00;97076.25;4980354;28;20637;-49
2022/01/16 07:55:39;;;;;;;44.33;21.67;;;;;;;1.07;100.00;97081.97;4984487;28;20078;-47
2022/01/16 07:58:07;;;;;;;40.88;22.15;;;;;;;1.18;100.00;97090.09;4988058;28;20086;-50
2022/01/16 08:00:37;;;;;;;42.45;22.50;;;;;;;1.01;100.00;97103.03;4979118;28;20073;-54
2022/01/16 08:03:06;;;;;;;32.22;17.45;;;;;;;0.93;100.00;97096.41;4977779;28;20070;-53
2022/01/16 08:05:35;;;;;;;43.78;21.25;;;;;;;1.10;100.00;97099.97;4985765;28;20469;-51
2022/01/16 08:08:03;;;;;;;30.63;16.88;;;;;;;0.92;100.00;97104.25;4983064;28;20088;-52
2022/01/16 08:10:32;;;;;;;45.40;22.75;;;;;;;1.06;100.00;97112.25;4982970;28;20080;-47
2022/01/16 08:13:00;;;;;;;40.05;19.65;;;;;;;0.95;100.00;97111.91;4977240;28;20447;-48
2022/01/16 08:15:29;;;;;;;33.15;18.15;;;;;;;0.78;100.00;97115.28;4985314;28;20066;-48
2022/01/16 08:17:59;;;;;;;26.35;15.02;;;;;;;1.17;100.00;97099.66;4982889;28;20074;-50
2022/01/16 08:20:27;;;;;;;34.90;18.33;;;;;;;1.32;100.00;97092.03;4982446;28;20062;-52
2022/01/16 08:22:56;;;;;;;28.40;13.65;;;;;;;1.17;100.00;97091.84;4982371;28;20078;-48
2022/01/16 08:25:25;;;;;;;37.53;20.85;;;;;;;1.13;100.00;97092.03;4986306;28;20085;-45
2022/01/16 08:27:53;;;;;;;43.55;21.55;;;;;;;1.31;100.00;97085.19;4974324;28;20061;-51
2022/01/16 08:30:22;;;;;;;41.45;20.73;;;;;;;1.25;100.00;97091.50;4979934;28;20072;-51
2022/01/16 08:32:52;;;;;;;40.30;20.27;;;;;;;1.34;100.00;97096.25;4977928;28;20066;-50
2022/01/16 08:35:22;;;;;;;33.72;17.50;;;;;;;1.30;100.00;97092.09;4984520;28;20072;-47
2022/01/16 08:37:51;;;;;;;44.20;23.15;;;;;;;1.26;100.00;97094.94;4986413;28;20091;-47
2022/01/16 08:40:19;;;;;;;41.33;21.63;;;;;;;1.32;100.00;97092.03;4988685;28;20089;-48
2022/01/16 08:42:48;;;;;;;40.38;21.88;;;;;;;1.41;100.00;97089.00;4982118;28;20074;-47
2022/01/16 08:45:16;;;;;;;45.40;24.15;;;;;;;1.43;100.00;97084.56;4984362;28;20248;-49
2022/01/16 08:47:45;;;;;;;42.67;22.00;;;;;;;1.20;100.00;97088.25;4992433;28;20062;-49
2022/01/16 08:50:15;;;;;;;42.92;23.27;;;;;;;1.57;100.00;97087.34;4987503;28;20547;-50
2022/01/16 08:52:45;;;;;;;43.15;23.27;;;;;;;1.56;100.00;97090.88;4984841;28;20074;-50
2022/01/16 08:55:14;;;;;;;38.55;21.90;;;;;;;1.19;100.00;97095.19;4983975;28;20473;-53
2022/01/16 08:57:42;;;;;;;44.63;24.30;;;;;;;1.50;100.00;97095.53;4982927;28;20124;-51
2022/01/16 09:00:12;;;;;;;48.80;23.25;;;;;;;1.76;100.00;97094.28;4983261;28;20126;-54
2022/01/16 09:02:40;;;;;;;45.13;24.33;;;;;;;1.80;100.00;97103.59;4989772;28;20077;-50
2022/01/16 09:05:10;;;;;;;47.95;25.48;;;;;;;1.67;100.00;97100.75;4982804;28;20453;-53
2022/01/16 09:07:39;;;;;;;46.73;25.03;;;;;;;1.99;100.00;97100.94;4979246;28;20533;-51
2022/01/16 09:10:09;;;;;;;47.67;24.80;;;;;;;1.82;100.00;97092.19;4985418;28;20089;-50
2022/01/16 09:12:37;;;;;;;;;;;;;;;1.59;100.00;97095.94;4985336;28;20062;-57
2022/01/16 09:15:08;;;;;;;39.30;20.20;;;;;;;1.56;100.00;97090.88;4981174;28;19964;-57
2022/01/16 09:17:38;;;;;;;40.30;22.27;;;;;;;1.71;100.00;97099.69;4981817;28;20066;-51
2022/01/16 09:20:15;;;;;;;44.13;23.52;;;;;;;1.87;100.00;97085.03;4981537;28;20066;-49
2022/01/16 09:22:49;;;;;;;42.25;22.08;;;;;;;1.79;100.00;97096.69;4990254;28;20038;-54
2022/01/16 09:25:26;;;;;;;31.92;17.05;;;;;;;1.88;100.00;97089.28;4987444;28;20714;-53
2022/01/16 09:27:58;;;;;;;45.88;23.63;;;;;;;1.87;100.00;97094.59;4984392;28;20062;-47
2022/01/16 09:30:31;;;;;;;42.97;23.75;;;;;;;2.23;100.00;97091.88;4983401;28;20070;-48
2022/01/16 09:33:03;;;;;;;43.58;21.90;;;;;;;2.00;100.00;97107.84;4978572;28;20088;-50
2022/01/16 09:35:33;;;;;;;44.35;23.45;;;;;;;2.16;100.00;97110.50;4981148;28;20173;-53
2022/01/16 09:38:02;;;;;;;42.45;21.85;;;;;;;2.09;100.00;97104.75;4987216;28;20073;-50
2022/01/16 09:40:32;;;;;;;46.30;23.02;;;;;;;2.23;100.00;97099.69;4988005;28;20469;-47
2022/01/16 09:43:00;;;;;;;44.60;23.63;;;;;;;2.17;100.00;97106.97;4978584;28;20062;-53
2022/01/16 09:45:28;;;;;;;46.72;24.02;;;;;;;2.22;100.00;97110.19;4981442;28;20088;-51
2022/01/16 09:47:57;;;;;;;43.47;23.58;;;;;;;2.32;100.00;97109.66;4987484;28;20555;-52
2022/01/16 09:50:27;;;;;;;41.10;20.67;;;;;;;2.18;100.00;97111.28;4984327;28;20069;-48
2022/01/16 09:52:55;;;;;;;44.88;24.40;;;;;;;2.40;100.00;97105.81;4979107;28;20547;-53
2022/01/16 09:55:24;;;;;;;50.08;23.83;;;;;;;2.52;100.00;97100.81;4985521;28;20081;-51
2022/01/16 09:57:55;;;;;;;43.63;22.70;;;;;;;2.54;100.00;97109.38;4984397;28;20073;-53
2022/01/16 10:00:25;;;;;;;41.17;21.17;;;;;;;2.45;100.00;97109.88;4981630;28;20434;-49
2022/01/16 10:02:54;;;;;;;42.70;24.45;;;;;;;2.50;100.00;97107.84;4981595;28;20069;-50
2022/01/16 10:05:25;;;;;;;47.15;22.33;;;;;;;2.54;100.00;97103.34;4989415;28;20081;-48
2022/01/16 10:07:55;;;;;;;30.70;15.32;;;;;;;2.53;100.00;97102.50;4982189;28;20077;-51
2022/01/16 10:10:26;;;;;;;42.25;21.00;;;;;;;2.69;100.00;97097.34;4987819;28;20551;-50
2022/01/16 10:13:04;;;;;;;37.10;19.58;;;;;;;2.70;100.00;97096.41;4982639;28;20069;-49
2022/01/16 10:15:33;;;;;;;27.70;17.00;;;;;;;2.58;100.00;97090.09;4990503;28;20061;-55
2022/01/16 10:18:05;;;;;;;43.60;22.08;;;;;;;2.89;100.00;97090.22;4983294;28;20065;-55
2022/01/16 10:20:42;;;;;;;44.13;21.92;;;;;;;2.80;100.00;97087.19;4986896;28;20097;-48
2022/01/16 10:23:17;;;;;;;32.88;17.77;;;;;;;2.89;100.00;97080.66;4987159;28;20078;-50
2022/01/16 10:25:47;;;;;;;42.03;21.33;;;;;;;2.93;100.00;97078.75;4988891;28;20078;-53
2022/01/16 10:28:19;;;;;;;36.67;21.15;;;;;;;3.12;100.00;97079.41;4987335;28;20093;-56
2022/01/16 10:30:49;;;;;;;34.80;19.20;;;;;;;3.17;100.00;97090.44;4984880;28;20067;-49
2022/01/16 10:33:20;;;;;;;39.88;22.45;;;;;;;3.27;100.00;97081.19;4990150;28;20070;-51
2022/01/16 10:35:50;;;;;;;31.33;16.45;;;;;;;3.30;100.00;97082.75;4987544;28;20100;-53
2022/01/16 10:38:20;;;;;;;39.17;21.15;;;;;;;3.22;100.00;97080.59;4984459;28;20092;-51
2022/01/16 10:40:50;;;;;;;34.72;20.90;;;;;;;3.37;100.00;97080.66;4987183;28;20093;-53
2022/01/16 10:43:22;;;;;;;31.77;16.92;;;;;;;3.39;100.00;97078.81;4993529;28;21854;-54
2022/01/16 10:46:00;;;;;;;33.78;17.95;;;;;;;3.44;100.00;97079.41;4985852;28;20062;-53
2022/01/16 10:48:48;;;;;;;35.80;21.10;;;;;;;3.53;100.00;97081.50;4985521;28;20521;-50
2022/01/16 10:51:19;;;;;;;30.67;18.02;;;;;;;3.45;100.00;97065.47;4991172;28;20082;-51
2022/01/16 10:53:48;;;;;;;39.42;22.98;;;;;;;3.67;100.00;97078.09;4980625;28;20457;-50
2022/01/16 10:56:16;;;;;;;37.60;21.13;;;;;;;3.62;100.00;97081.00;4982701;28;20101;-52
2022/01/16 10:58:47;;;;;;;33.80;19.83;;;;;;;3.73;100.00;97078.59;4982636;28;20077;-55
2022/01/16 11:01:19;;;;;;;17.85;11.68;;;;;;;3.80;100.00;97086.94;4980387;28;20077;-55
2022/01/16 11:03:48;;;;;;;30.30;18.40;;;;;;;3.81;100.00;97084.22;4980338;28;20070;-49
2022/01/16 11:06:18;;;;;;;34.63;18.65;;;;;;;3.97;100.00;97085.97;4979683;28;20070;-48
2022/01/16 11:08:50;;;;;;;27.92;15.63;;;;;;;3.81;100.00;97086.00;4979819;28;20142;-49
2022/01/16 11:11:20;;;;;;;27.80;16.80;;;;;;;3.79;100.00;97087.88;4974631;28;21598;-53
2022/01/16 11:13:50;;;;;;;17.67;11.30;;;;;;;3.87;100.00;97083.03;4986042;28;20081;-52
2022/01/16 11:16:19;;;;;;;26.67;14.48;;;;;;;3.81;100.00;97091.22;4988332;28;20089;-55
2022/01/16 11:18:49;;;;;;;20.17;11.77;;;;;;;3.89;100.00;97081.19;4990524;28;20073;-53
2022/01/16 11:21:30;;;;;;;29.73;16.95;;;;;;;4.08;100.00;97078.34;4986297;28;20077;-51
2022/01/16 11:24:22;;;;;;;;;;;;;;;4.12;100.00;97084.22;4989014;28;20069;-51
2022/01/16 11:26:50;;;;;;;;;;;;;;;4.08;100.00;97082.72;4990616;28;19956;-54
2022/01/16 11:29:20;;;;;;;21.98;13.00;;;;;;;4.25;100.00;97082.59;4990847;28;19969;-54
2022/01/16 11:31:49;;;;;;;21.87;12.83;;;;;;;4.28;100.00;97083.25;4989800;28;20086;-53
2022/01/16 11:34:17;;;;;;;27.52;14.95;;;;;;;4.40;100.00;97076.44;4989126;28;21079;-52
2022/01/16 11:36:46;;;;;;;23.75;13.57;;;;;;;4.15;100.00;97073.59;4988110;28;20057;-50
2022/01/16 11:39:15;;;;;;;27.63;14.82;;;;;;;4.35;100.00;97070.66;4985646;28;20074;-53
2022/01/16 11:41:50;;;;;;;31.92;17.98;;;;;;;4.29;100.00;97068.41;4991245;28;20064;-49
2022/01/16 11:44:24;;;;;;;26.55;17.27;;;;;;;4.22;100.00;97067.09;4984503;28;20074;-50
2022/01/16 11:46:56;;;;;;;16.75;10.35;;;;;;;4.46;100.00;97076.06;4984095;28;20085;-54
2022/01/16 11:49:32;;;;;;;17.92;11.52;;;;;;;4.18;100.00;97055.16;4983342;28;20084;-56
2022/01/16 11:52:09;;;;;;;16.55;10.38;;;;;;;4.28;100.00;97067.56;4992965;28;20296;-52
2022/01/16 11:54:39;;;;;;;18.08;10.90;;;;;;;4.25;100.00;97083.41;4984095;28;20073;-57
2022/01/16 11:57:18;;;;;;;;;;;;;;;4.38;100.00;97080.09;4991695;28;20096;-48
2022/01/16 11:59:50;;;;;;;15.82;10.60;;;;;;;4.55;100.00;97090.38;4990520;28;19957;-51
2022/01/16 12:02:26;;;;;;;18.98;11.15;;;;;;;4.61;100.00;97091.75;4988846;28;20077;-54
2022/01/16 12:05:04;;;;;;;19.95;11.13;;;;;;;4.66;100.00;97092.34;4988287;28;20081;-53
2022/01/16 12:07:52;;;;;;;21.55;12.30;;;;;;;4.62;100.00;97090.84;4991437;28;20089;-46